Time;durP1;ratioP1;P1;durP2;ratioP2;P2;SDS_P1;SDS_P2;PMS_P1;PMS_P2;Temp;Humidity;BMP_temperature;BMP_pressure;BME280_temperature;BME280_humidity;BME280_pressure;Samples;Min_cycle;Max_cycle;Signal;HPM_P1;HPM_P2
2022/12/27 00:02:13;;;;;;;5.97;2.08;;;4.10;99.90;;;;;;5051493;28;20140;-68
2022/12/27 00:04:38;;;;;;;9.63;2.20;;;4.20;99.90;;;;;;5051594;28;20053;-68
2022/12/27 00:07:05;;;;;;;7.95;2.20;;;4.20;99.90;;;;;;5035666;28;20041;-68
2022/12/27 00:09:30;;;;;;;7.53;2.15;;;4.20;99.90;;;;;;5031962;28;20033;-68
2022/12/27 00:11:56;;;;;;;6.97;2.05;;;4.10;99.90;;;;;;5052428;28;20044;-68
2022/12/27 00:14:22;;;;;;;10.45;2.20;;;4.20;99.90;;;;;;5051340;28;20397;-68
2022/12/27 00:16:47;;;;;;;8.05;2.22;;;4.10;99.90;;;;;;5052303;28;20128;-68
2022/12/27 00:19:13;;;;;;;6.28;1.48;;;4.20;99.90;;;;;;5038564;28;20041;-68
2022/12/27 00:21:38;;;;;;;6.05;1.60;;;4.20;99.90;;;;;;5032424;28;20410;-68
2022/12/27 00:24:04;;;;;;;8.27;1.85;;;4.20;99.90;;;;;;5028213;28;20041;-68
2022/12/27 00:26:32;;;;;;;9.02;1.95;;;4.20;99.90;;;;;;5052292;28;20037;-68
2022/12/27 00:28:58;;;;;;;6.43;1.83;;;4.30;99.90;;;;;;5051185;28;20131;-68
2022/12/27 00:31:26;;;;;;;4.03;1.73;;;4.20;99.90;;;;;;5052434;28;20051;-68
2022/12/27 00:33:54;;;;;;;5.13;1.40;;;4.30;99.90;;;;;;5035756;28;20072;-68
2022/12/27 00:36:22;;;;;;;9.77;2.00;;;4.30;99.90;;;;;;5033544;28;20496;-68
2022/12/27 00:38:49;;;;;;;11.13;2.55;;;4.40;99.90;;;;;;5051875;28;20536;-68
2022/12/27 00:41:15;;;;;;;6.65;1.75;;;4.40;99.90;;;;;;5035366;28;20033;-68
2022/12/27 00:43:41;;;;;;;8.68;1.95;;;4.50;99.90;;;;;;5050864;28;20033;-68
2022/12/27 00:46:07;;;;;;;6.75;1.90;;;4.50;99.90;;;;;;5051912;28;20059;-68
2022/12/27 00:48:33;;;;;;;6.43;1.70;;;4.50;99.90;;;;;;5050992;28;20481;-68
2022/12/27 00:51:05;;;;;;;11.70;2.08;;;4.50;99.90;;;;;;5035276;28;20124;-68
2022/12/27 00:53:33;;;;;;;4.90;1.30;;;4.50;99.90;;;;;;5051894;28;20055;-68
2022/12/27 00:55:59;;;;;;;6.38;1.38;;;4.50;99.90;;;;;;5051659;28;20041;-68
2022/12/27 00:58:24;;;;;;;10.75;1.92;;;4.60;99.90;;;;;;5044635;28;20091;-68
2022/12/27 01:00:50;;;;;;;9.85;1.60;;;4.60;99.90;;;;;;5031919;28;20072;-68
2022/12/27 01:03:17;;;;;;;5.28;1.38;;;4.60;99.90;;;;;;5031721;28;20454;-68
2022/12/27 01:05:43;;;;;;;9.75;1.73;;;4.60;99.90;;;;;;5046605;28;20504;-68
2022/12/27 01:08:08;;;;;;;9.95;2.03;;;4.60;99.90;;;;;;5035013;28;20083;-68
2022/12/27 01:10:34;;;;;;;8.00;1.70;;;4.60;99.90;;;;;;5035344;28;20106;-68
2022/12/27 01:13:02;;;;;;;8.15;1.83;;;4.60;99.90;;;;;;5047591;28;20474;-68
2022/12/27 01:15:27;;;;;;;4.57;1.27;;;4.70;99.90;;;;;;5038383;28;20033;-68
2022/12/27 01:17:53;;;;;;;8.20;1.70;;;4.60;99.90;;;;;;5040275;28;20045;-68
2022/12/27 01:20:19;;;;;;;8.63;1.50;;;4.60;99.90;;;;;;5053807;28;20041;-68
2022/12/27 01:22:44;;;;;;;3.13;1.13;;;4.70;99.90;;;;;;5055657;28;20037;-68
2022/12/27 01:25:10;;;;;;;7.13;1.67;;;4.60;99.90;;;;;;5038051;28;20040;-68
2022/12/27 01:27:35;;;;;;;9.93;1.58;;;4.70;99.90;;;;;;5052326;28;20037;-68
2022/12/27 01:30:05;;;;;;;8.63;2.90;;;4.60;99.90;;;;;;5055451;28;20378;-68
2022/12/27 01:32:34;;;;;;;6.03;1.27;;;4.60;99.90;;;;;;5038741;28;20033;-68
2022/12/27 01:35:00;;;;;;;7.82;1.85;;;4.60;99.90;;;;;;5049530;28;20040;-68
2022/12/27 01:37:29;;;;;;;8.32;2.08;;;4.60;99.90;;;;;;5019213;28;20041;-68
2022/12/27 01:39:55;;;;;;;4.97;1.42;;;4.60;99.90;;;;;;5035693;28;20047;-68
2022/12/27 01:45:26;;;;;;;7.40;1.75;;;4.80;99.90;;;;;;5055185;28;20083;-68
2022/12/27 01:48:13;;;;;;;7.00;1.52;;;4.70;99.90;;;;;;5068809;28;20045;-68
2022/12/27 01:50:47;;;;;;;5.55;1.30;;;4.80;99.90;;;;;;5019038;28;20057;-68
2022/12/27 01:53:29;;;;;;;6.32;1.33;;;4.80;99.90;;;;;;5060280;28;20041;-68
2022/12/27 01:56:02;;;;;;;;;;;4.80;99.90;;;;;;5054142;28;20033;-68
2022/12/27 01:58:31;;;;;;;6.13;1.55;;;4.80;99.90;;;;;;5036848;28;19925;-68
2022/12/27 02:00:58;;;;;;;8.32;1.58;;;4.70;99.90;;;;;;5038300;28;20493;-68
2022/12/27 02:03:28;;;;;;;4.28;1.20;;;4.70;99.90;;;;;;5037496;28;20045;-68
2022/12/27 02:05:56;;;;;;;9.35;1.80;;;4.80;99.90;;;;;;5055023;28;20179;-68
2022/12/27 02:08:35;;;;;;;8.68;1.80;;;4.70;99.90;;;;;;5054589;28;20072;-68
2022/12/27 02:11:03;;;;;;;4.38;1.40;;;4.70;99.90;;;;;;5036482;28;20167;-68
2022/12/27 02:13:32;;;;;;;4.13;1.38;;;4.70;99.90;;;;;;5055021;28;20395;-68
2022/12/27 02:15:58;;;;;;;9.82;2.03;;;4.80;99.90;;;;;;5054608;28;20040;-68
2022/12/27 02:18:23;;;;;;;6.72;1.60;;;4.70;99.90;;;;;;5053650;28;20032;-68
2022/12/27 02:21:08;;;;;;;8.93;1.80;;;4.70;99.90;;;;;;5037037;28;20037;-68
2022/12/27 02:26:43;;;;;;;10.70;2.70;;;4.80;99.90;;;;;;5052266;28;20053;-68
2022/12/27 02:29:21;;;;;;;10.57;1.70;;;4.90;99.90;;;;;;5053351;28;20048;-68
2022/12/27 02:32:10;;;;;;;10.65;1.85;;;5.00;99.90;;;;;;5054751;28;20424;-68
2022/12/27 02:34:45;;;;;;;6.15;1.40;;;4.90;99.90;;;;;;5036994;28;20041;-68
2022/12/27 02:37:12;;;;;;;10.30;1.42;;;4.80;99.90;;;;;;5054203;28;20044;-68
2022/12/27 02:39:42;;;;;;;10.88;2.08;;;4.90;99.90;;;;;;5054516;28;20408;-68
2022/12/27 02:53:51;;;;;;;8.55;1.50;;;4.90;99.90;;;;;;5068760;28;20107;-68
2022/12/27 03:15:56;;;;;;;6.35;1.98;;;5.10;99.90;;;;;;5039849;28;20041;-68
2022/12/27 03:19:03;;;;;;;4.45;1.20;;;5.10;99.90;;;;;;5043139;28;20037;-68
2022/12/27 03:27:27;;;;;;;11.35;1.70;;;5.00;99.90;;;;;;5044196;28;20044;-68
2022/12/27 03:38:54;;;;;;;12.95;2.08;;;4.80;99.90;;;;;;5035321;28;20049;-68
2022/12/27 03:44:23;;;;;;;11.15;2.15;;;4.90;99.90;;;;;;5037709;28;20446;-68
2022/12/27 03:46:58;;;;;;;8.07;1.50;;;4.80;99.90;;;;;;5030063;28;20128;-68
2022/12/27 03:50:05;;;;;;;11.10;1.92;;;4.80;99.90;;;;;;5032585;28;20086;-68
2022/12/27 03:52:38;;;;;;;7.07;1.40;;;4.80;99.90;;;;;;5018929;28;20045;-68
2022/12/27 03:55:04;;;;;;;6.60;1.65;;;4.90;99.90;;;;;;5052581;28;20049;-68
2022/12/27 03:57:30;;;;;;;5.57;1.10;;;4.80;99.90;;;;;;5035053;28;20378;-68
2022/12/27 03:59:56;;;;;;;4.20;1.20;;;4.90;99.90;;;;;;5037697;28;20132;-68
2022/12/27 04:02:22;;;;;;;9.15;1.50;;;4.90;99.90;;;;;;5035042;28;20087;-68
2022/12/27 04:04:47;;;;;;;8.48;1.33;;;4.90;99.90;;;;;;5044670;28;20041;-68
2022/12/27 04:07:14;;;;;;;9.38;1.55;;;4.80;99.90;;;;;;5034011;28;20053;-68
2022/12/27 04:37:04;;;;;;;7.82;1.50;;;5.10;99.90;;;;;;5046553;28;20096;-68
2022/12/27 04:39:30;;;;;;;6.82;1.20;;;5.10;99.90;;;;;;5038791;28;20527;-68
2022/12/27 04:55:43;;;;;;;5.50;2.03;;;4.90;99.90;;;;;;5048152;28;20128;-68
2022/12/27 04:58:09;;;;;;;5.93;1.30;;;4.80;99.90;;;;;;5038662;28;20470;-68
2022/12/27 05:03:22;;;;;;;7.50;1.33;;;4.80;99.90;;;;;;5037855;28;20056;-67
2022/12/27 05:05:49;;;;;;;8.70;1.30;;;4.80;99.90;;;;;;5042252;28;20116;-68
2022/12/27 05:14:00;;;;;;;6.07;1.27;;;4.70;99.90;;;;;;5037865;28;20049;-68
2022/12/27 05:16:40;;;;;;;12.55;1.63;;;4.80;99.90;;;;;;5039904;28;20057;-68
2022/12/27 05:19:08;;;;;;;9.20;1.88;;;4.80;99.90;;;;;;5024168;28;20041;-68
2022/12/27 05:25:33;;;;;;;11.68;2.05;;;4.70;99.90;;;;;;5049441;28;20515;-68
2022/12/27 05:27:12;;;;;;;9.20;1.50;;;4.50;99.90;;;;;;5049429;28;20080;-68
2022/12/27 05:29:37;;;;;;;6.95;1.70;;;4.40;99.90;;;;;;5050498;28;20468;-68
2022/12/27 05:32:03;;;;;;;7.18;1.52;;;4.30;99.90;;;;;;5047662;28;20040;-68
2022/12/27 05:34:29;;;;;;;9.25;1.38;;;4.40;99.90;;;;;;5050660;28;20067;-68
2022/12/27 05:36:54;;;;;;;9.77;1.90;;;4.70;99.90;;;;;;5049581;28;20068;-68
2022/12/27 05:39:20;;;;;;;8.63;1.70;;;4.70;99.90;;;;;;5032141;28;20177;-68
2022/12/27 05:41:45;;;;;;;6.53;1.55;;;4.60;99.90;;;;;;5050664;28;20037;-67
2022/12/27 05:44:11;;;;;;;9.77;1.60;;;4.80;99.90;;;;;;5049856;28;20041;-67
2022/12/27 05:46:36;;;;;;;6.50;1.58;;;4.70;99.90;;;;;;5048330;28;20494;-67
2022/12/27 05:49:02;;;;;;;7.18;1.45;;;4.70;99.90;;;;;;5036027;28;20033;-68
2022/12/27 05:51:28;;;;;;;7.30;1.60;;;4.80;99.90;;;;;;5059385;28;20056;-67
2022/12/27 05:53:53;;;;;;;10.70;1.65;;;4.70;99.90;;;;;;5034123;28;20142;-67
2022/12/27 05:56:21;;;;;;;8.52;1.80;;;4.70;99.90;;;;;;5048640;28;20497;-67
2022/12/27 05:58:46;;;;;;;8.80;1.80;;;4.60;99.90;;;;;;5032684;28;20044;-68
2022/12/27 06:01:15;;;;;;;13.10;1.70;;;4.40;99.90;;;;;;5044519;28;20037;-67
2022/12/27 06:03:41;;;;;;;13.65;1.40;;;4.40;99.90;;;;;;5033651;28;20497;-68
2022/12/27 06:06:07;;;;;;;3.72;1.00;;;4.40;99.90;;;;;;5050813;28;20052;-67
2022/12/27 06:08:34;;;;;;;9.02;1.48;;;4.40;99.90;;;;;;5071310;28;20052;-68
2022/12/27 06:11:12;;;;;;;5.95;1.45;;;4.50;99.90;;;;;;5052222;28;20033;-68
2022/12/27 06:13:40;;;;;;;9.73;1.60;;;4.40;99.90;;;;;;5033810;28;20511;-68
2022/12/27 06:16:09;;;;;;;7.75;2.47;;;4.40;99.90;;;;;;5037361;28;20041;-68
2022/12/27 06:18:36;;;;;;;6.45;1.65;;;4.50;99.90;;;;;;5036184;28;20052;-68
2022/12/27 06:21:04;;;;;;;10.23;2.42;;;4.50;99.90;;;;;;5051163;28;20094;-67
2022/12/27 06:23:29;;;;;;;8.43;1.60;;;4.50;99.90;;;;;;5064526;28;20049;-67
2022/12/27 06:25:55;;;;;;;10.48;1.70;;;4.60;99.90;;;;;;5036021;28;20068;-68
2022/12/27 06:28:20;;;;;;;7.38;1.75;;;4.60;99.90;;;;;;5040488;28;20110;-67
2022/12/27 06:30:46;;;;;;;9.93;1.70;;;4.60;99.90;;;;;;5036633;28;20037;-67
2022/12/27 06:33:14;;;;;;;11.32;1.67;;;4.60;99.90;;;;;;5034271;28;20043;-68
2022/12/27 06:35:39;;;;;;;8.57;1.50;;;4.60;99.90;;;;;;5045560;28;20044;-69
2022/12/27 06:38:05;;;;;;;9.25;1.70;;;4.60;99.90;;;;;;5036451;28;20033;-69
2022/12/27 06:40:30;;;;;;;9.80;1.73;;;4.40;99.90;;;;;;5051994;28;20045;-66
2022/12/27 06:42:56;;;;;;;7.07;1.58;;;4.40;99.90;;;;;;5037864;28;20043;-66
2022/12/27 06:45:21;;;;;;;7.35;2.42;;;4.30;99.90;;;;;;5034220;28;20067;-66
2022/12/27 06:47:47;;;;;;;7.32;1.77;;;4.30;99.90;;;;;;5036782;28;20041;-66
2022/12/27 06:50:12;;;;;;;5.75;1.35;;;4.30;99.90;;;;;;5049668;28;20112;-66
2022/12/27 06:52:38;;;;;;;7.63;1.88;;;4.20;99.90;;;;;;5043677;28;20041;-66
2022/12/27 06:55:04;;;;;;;6.03;1.08;;;4.10;99.90;;;;;;5048293;28;20044;-66
2022/12/27 06:57:29;;;;;;;7.22;1.45;;;4.10;99.90;;;;;;5052822;28;20108;-66
2022/12/27 06:59:55;;;;;;;6.95;1.20;;;4.00;99.90;;;;;;5038882;28;20037;-66
2022/12/27 07:02:20;;;;;;;11.15;1.45;;;4.00;99.90;;;;;;5026187;28;20084;-66
2022/12/27 07:04:46;;;;;;;4.03;1.17;;;3.90;99.90;;;;;;5033568;28;20044;-66
2022/12/27 07:07:12;;;;;;;7.13;1.52;;;4.00;99.90;;;;;;5044135;28;20034;-66
2022/12/27 07:09:37;;;;;;;5.20;1.05;;;4.00;99.90;;;;;;5039118;28;20111;-67
2022/12/27 07:12:03;;;;;;;5.25;1.20;;;4.10;99.90;;;;;;5034105;28;20041;-67
2022/12/27 07:14:28;;;;;;;8.30;1.52;;;4.00;99.90;;;;;;5065460;28;20040;-67
2022/12/27 07:16:54;;;;;;;8.85;2.13;;;4.10;99.90;;;;;;5034193;28;20049;-67
2022/12/27 07:19:19;;;;;;;6.70;1.33;;;4.10;99.90;;;;;;5034501;28;20037;-67
2022/12/27 07:21:45;;;;;;;5.82;1.23;;;4.00;99.90;;;;;;5028733;28;20040;-67
2022/12/27 07:24:11;;;;;;;7.38;1.70;;;3.90;99.90;;;;;;5040884;28;20045;-67
2022/12/27 07:26:38;;;;;;;7.80;1.35;;;3.80;99.90;;;;;;5034609;28;20087;-67
2022/12/27 07:29:04;;;;;;;6.30;1.77;;;3.90;99.90;;;;;;5051240;28;20583;-67
2022/12/27 07:31:31;;;;;;;6.93;1.52;;;3.90;99.90;;;;;;5045414;28;20086;-67
2022/12/27 07:33:57;;;;;;;8.32;1.42;;;4.00;99.90;;;;;;5048119;28;20041;-67
2022/12/27 07:36:27;;;;;;;8.52;1.65;;;4.00;99.90;;;;;;5034401;28;20036;-67
2022/12/27 07:38:53;;;;;;;8.65;1.52;;;4.20;99.90;;;;;;5048526;28;20064;-67
2022/12/27 07:41:19;;;;;;;6.50;1.60;;;4.30;99.90;;;;;;5051061;28;20060;-67
2022/12/27 07:43:45;;;;;;;7.65;1.60;;;4.30;99.90;;;;;;5050582;28;20075;-67
2022/12/27 07:46:19;;;;;;;8.82;1.83;;;4.50;99.90;;;;;;5034939;28;20037;-67
2022/12/27 07:48:46;;;;;;;8.80;1.50;;;4.60;99.90;;;;;;5035870;28;20120;-67
2022/12/27 07:51:12;;;;;;;8.10;1.98;;;4.60;99.90;;;;;;5033166;28;20076;-67
2022/12/27 07:53:37;;;;;;;3.85;1.50;;;4.60;99.90;;;;;;5052689;28;20033;-68
2022/12/27 07:56:12;;;;;;;6.28;1.70;;;4.60;99.90;;;;;;5046388;28;20033;-68
2022/12/27 07:58:40;;;;;;;8.57;1.77;;;4.50;99.90;;;;;;5047114;28;20037;-68
2022/12/27 08:01:07;;;;;;;9.52;1.60;;;4.50;99.90;;;;;;5052522;28;20119;-68
2022/12/27 08:03:33;;;;;;;4.97;1.20;;;4.40;99.90;;;;;;5032416;28;20110;-68
2022/12/27 08:05:59;;;;;;;13.82;1.80;;;4.30;99.90;;;;;;5034730;28;20044;-68
2022/12/27 08:08:31;;;;;;;9.05;1.73;;;4.20;99.90;;;;;;5051016;28;20041;-68
2022/12/27 08:10:56;;;;;;;7.00;1.40;;;4.30;99.90;;;;;;5051657;28;20096;-68
2022/12/27 08:13:22;;;;;;;7.10;1.90;;;4.10;99.90;;;;;;5032232;28;20040;-68
2022/12/27 08:15:50;;;;;;;6.32;2.00;;;4.20;99.90;;;;;;5035157;28;20072;-68
2022/12/27 08:18:16;;;;;;;7.63;1.98;;;4.20;99.90;;;;;;5051536;28;20495;-68
2022/12/27 08:20:41;;;;;;;9.52;2.08;;;4.20;99.90;;;;;;5034235;28;20073;-68
2022/12/27 08:23:07;;;;;;;9.95;2.08;;;4.20;99.90;;;;;;5033428;28;20151;-68
2022/12/27 08:25:32;;;;;;;8.18;1.80;;;4.10;99.90;;;;;;5049575;28;20039;-68
2022/12/27 08:28:06;;;;;;;8.13;2.55;;;4.10;99.90;;;;;;5060811;28;20079;-68
2022/12/27 08:30:31;;;;;;;9.82;2.38;;;4.10;99.90;;;;;;5041202;28;20091;-68
2022/12/27 08:32:57;;;;;;;4.85;1.40;;;4.00;99.90;;;;;;5051843;28;20033;-68
2022/12/27 08:35:23;;;;;;;8.75;1.67;;;4.10;99.90;;;;;;5048960;28;20044;-68
2022/12/27 08:37:48;;;;;;;13.00;2.28;;;4.30;99.90;;;;;;5068229;28;20041;-68
2022/12/27 08:40:14;;;;;;;9.45;2.08;;;4.10;99.90;;;;;;5066034;28;20489;-66
2022/12/27 08:42:39;;;;;;;8.23;1.65;;;4.10;99.90;;;;;;5033325;28;20091;-66
2022/12/27 08:45:05;;;;;;;8.48;2.00;;;4.20;99.90;;;;;;5033263;28;20044;-66
2022/12/27 08:47:31;;;;;;;6.78;1.50;;;4.20;99.90;;;;;;5022793;28;20052;-66
2022/12/27 08:49:56;;;;;;;11.23;1.88;;;4.30;99.90;;;;;;5031869;28;20033;-66
2022/12/27 08:52:22;;;;;;;5.68;1.65;;;4.30;99.90;;;;;;5051231;28;20124;-67
2022/12/27 08:54:47;;;;;;;7.18;2.10;;;4.30;99.90;;;;;;5067872;28;20091;-72
2022/12/27 08:57:13;;;;;;;7.28;1.77;;;4.40;99.90;;;;;;5035372;28;20048;-67
2022/12/27 08:59:38;;;;;;;5.93;1.80;;;4.40;99.90;;;;;;5051128;28;20082;-68
2022/12/27 09:02:04;;;;;;;5.72;1.50;;;4.50;99.90;;;;;;5033489;28;20567;-68
2022/12/27 09:04:30;;;;;;;10.63;2.28;;;4.40;99.90;;;;;;5023965;28;20406;-68
2022/12/27 09:06:55;;;;;;;8.73;1.73;;;4.50;99.90;;;;;;5014409;28;20552;-68
2022/12/27 09:09:21;;;;;;;9.25;1.73;;;4.50;99.90;;;;;;5050008;28;20044;-68
2022/12/27 09:11:46;;;;;;;9.73;2.28;;;4.60;99.90;;;;;;5033566;28;20037;-68
2022/12/27 09:14:12;;;;;;;9.45;2.33;;;4.50;99.90;;;;;;5030449;28;20409;-68
2022/12/27 09:16:38;;;;;;;7.68;1.65;;;4.60;99.90;;;;;;5039500;28;20049;-68
2022/12/27 09:19:04;;;;;;;8.43;1.80;;;4.60;99.90;;;;;;5051788;28;20045;-68
2022/12/27 09:21:31;;;;;;;6.97;1.70;;;4.50;99.90;;;;;;5040721;28;20072;-68
2022/12/27 09:23:57;;;;;;;8.35;1.65;;;4.60;99.90;;;;;;5031410;28;20397;-68
2022/12/27 09:26:28;;;;;;;10.93;2.75;;;4.60;99.90;;;;;;5049417;28;20128;-68
2022/12/27 09:28:55;;;;;;;9.57;1.85;;;4.70;99.90;;;;;;5049698;28;20040;-68
2022/12/27 09:31:22;;;;;;;8.85;1.95;;;4.60;99.90;;;;;;5050029;28;20045;-68
2022/12/27 09:33:48;;;;;;;9.10;1.75;;;4.60;99.90;;;;;;5051293;28;20045;-68
2022/12/27 09:36:18;;;;;;;8.45;1.80;;;4.70;99.90;;;;;;5043997;28;20037;-68
2022/12/27 09:38:45;;;;;;;9.15;1.70;;;4.80;99.90;;;;;;5026418;28;20051;-68
2022/12/27 09:41:39;;;;;;;9.85;1.80;;;4.80;99.90;;;;;;5034689;28;20079;-69
2022/12/27 09:44:28;;;;;;;9.55;2.58;;;4.80;99.90;;;;;;5053089;28;20041;-69
2022/12/27 09:46:59;;;;;;;7.32;2.42;;;4.80;99.90;;;;;;5053564;28;20049;-69
2022/12/27 09:49:48;;;;;;;9.25;2.35;;;4.90;99.90;;;;;;5036990;28;20136;-69
2022/12/27 09:52:21;;;;;;;9.52;2.33;;;5.00;99.90;;;;;;5039448;28;20060;-69
2022/12/27 09:54:55;;;;;;;7.28;1.80;;;5.00;99.90;;;;;;5020620;28;20048;-69
2022/12/27 09:57:32;;;;;;;12.07;2.67;;;5.10;99.90;;;;;;5046091;28;20052;-69
2022/12/27 10:00:00;;;;;;;7.43;1.55;;;5.10;99.90;;;;;;5037753;28;20048;-67
2022/12/27 10:02:27;;;;;;;7.78;2.13;;;5.20;99.90;;;;;;5043735;28;20511;-67
2022/12/27 10:04:55;;;;;;;10.05;2.67;;;5.20;99.90;;;;;;5047734;28;20053;-67
2022/12/27 10:07:36;;;;;;;11.00;1.98;;;5.30;99.90;;;;;;5053779;28;20124;-67
2022/12/27 10:10:17;;;;;;;15.38;2.63;;;5.40;99.90;;;;;;5049950;28;20041;-67
2022/12/27 10:13:07;;;;;;;9.03;1.73;;;5.40;99.90;;;;;;5044597;28;20037;-67
2022/12/27 10:15:59;;;;;;;4.53;1.50;;;5.50;99.90;;;;;;5052440;28;20401;-67
2022/12/27 10:18:43;;;;;;;10.40;2.17;;;5.60;99.90;;;;;;5036674;28;20489;-67
2022/12/27 10:21:22;;;;;;;8.20;1.95;;;5.70;99.90;;;;;;5051044;28;20421;-68
2022/12/27 10:23:59;;;;;;;10.18;1.92;;;5.80;99.90;;;;;;5063209;28;20045;-68
2022/12/27 10:26:25;;;;;;;9.98;2.30;;;5.90;99.90;;;;;;5052101;28;20064;-68
2022/12/27 10:28:57;;;;;;;8.38;1.90;;;5.90;99.90;;;;;;5022702;28;20409;-68
2022/12/27 10:31:24;;;;;;;10.07;2.15;;;6.00;99.90;;;;;;5036676;28;20037;-68
2022/12/27 10:33:51;;;;;;;9.50;2.42;;;6.00;99.90;;;;;;5048401;28;20033;-68
2022/12/27 10:36:27;;;;;;;14.93;2.97;;;6.10;99.90;;;;;;5036131;28;20516;-68
2022/12/27 10:38:54;;;;;;;9.02;1.92;;;6.10;99.90;;;;;;5052610;28;20049;-68
2022/12/27 10:41:37;;;;;;;12.20;2.97;;;6.20;99.90;;;;;;5052345;28;20041;-68
2022/12/27 10:44:11;;;;;;;7.72;2.30;;;6.30;99.90;;;;;;5052520;28;20055;-68
2022/12/27 10:46:37;;;;;;;9.52;2.22;;;6.50;99.90;;;;;;5041624;28;20052;-68
2022/12/27 10:49:07;;;;;;;12.45;2.28;;;6.60;99.90;;;;;;5051205;28;20493;-68
2022/12/27 10:51:36;;;;;;;10.38;2.03;;;6.50;99.90;;;;;;5051838;28;20037;-68
2022/12/27 10:54:19;;;;;;;7.68;1.75;;;6.60;99.90;;;;;;5036753;28;20532;-68
2022/12/27 10:56:45;;;;;;;7.07;1.70;;;6.80;99.90;;;;;;5051976;28;20533;-68
2022/12/27 10:59:25;;;;;;;8.18;2.60;;;6.80;99.90;;;;;;5036280;28;20123;-68
2022/12/27 11:02:00;;;;;;;6.93;2.53;;;6.90;99.90;;;;;;5048675;28;20088;-68
2022/12/27 11:04:26;;;;;;;5.47;1.33;;;6.90;99.90;;;;;;5059632;28;20553;-68
2022/12/27 11:07:01;;;;;;;9.73;1.50;;;6.80;99.90;;;;;;5057479;28;20103;-68
2022/12/27 11:09:31;;;;;;;9.65;1.80;;;6.80;99.90;;;;;;5062405;28;20073;-68
2022/12/27 11:12:18;;;;;;;8.57;1.60;;;6.70;99.90;;;;;;5053005;28;20124;-68
2022/12/27 11:15:02;;;;;;;11.02;2.03;;;6.70;99.90;;;;;;5064744;28;20048;-68
2022/12/27 11:17:45;;;;;;;9.25;2.25;;;6.80;99.90;;;;;;5049156;28;20465;-68
2022/12/27 11:20:22;;;;;;;7.65;1.52;;;6.80;99.90;;;;;;5044211;28;20096;-68
2022/12/27 11:22:52;;;;;;;9.38;1.65;;;6.80;99.90;;;;;;5043143;28;20059;-68
2022/12/27 11:25:19;;;;;;;4.35;1.45;;;6.70;99.90;;;;;;5049572;28;20056;-68
2022/12/27 11:27:47;;;;;;;9.57;1.73;;;6.70;99.90;;;;;;5033188;28;20096;-68
2022/12/27 11:30:25;;;;;;;9.95;2.20;;;6.60;99.90;;;;;;5049341;28;20059;-68
2022/12/27 11:32:52;;;;;;;6.93;1.75;;;6.60;99.90;;;;;;5051068;28;20037;-68
2022/12/27 11:35:20;;;;;;;9.15;2.15;;;6.60;99.90;;;;;;5034298;28;20451;-69
2022/12/27 11:37:47;;;;;;;10.82;2.08;;;6.70;99.90;;;;;;5041461;28;20033;-68
2022/12/27 11:40:21;;;;;;;10.82;1.80;;;6.60;99.90;;;;;;5051572;28;20087;-68
2022/12/27 11:42:51;;;;;;;7.10;1.83;;;6.50;99.90;;;;;;5032090;28;20079;-69
2022/12/27 11:45:17;;;;;;;15.48;3.58;;;6.60;99.90;;;;;;5032894;28;20056;-68
2022/12/27 11:48:03;;;;;;;9.98;2.00;;;6.60;99.90;;;;;;5034618;28;20037;-69
2022/12/27 11:50:46;;;;;;;9.73;2.08;;;6.60;99.90;;;;;;5036098;28;20110;-68
2022/12/27 11:53:21;;;;;;;10.25;1.83;;;6.50;99.90;;;;;;5050510;28;20427;-69
2022/12/27 11:56:23;;;;;;;9.98;2.15;;;6.40;99.90;;;;;;5032698;28;20042;-69
2022/12/27 11:59:24;;;;;;;7.93;2.50;;;6.60;99.90;;;;;;5017757;28;20440;-68
2022/12/27 12:02:11;;;;;;;10.35;2.40;;;6.70;99.90;;;;;;5009997;28;20044;-69
2022/12/27 12:04:51;;;;;;;8.52;1.80;;;6.70;99.90;;;;;;5045926;28;20416;-68
2022/12/27 12:07:38;;;;;;;11.70;2.10;;;6.70;99.90;;;;;;5067011;28;20492;-68
2022/12/27 12:10:41;;;;;;;5.35;1.60;;;6.70;99.90;;;;;;5036068;28;20041;-69
2022/12/27 12:13:22;;;;;;;9.10;1.80;;;6.60;99.90;;;;;;5068224;28;20033;-69
2022/12/27 12:16:06;;;;;;;9.33;1.97;;;6.60;99.90;;;;;;5051085;28;20081;-69
2022/12/27 12:18:47;;;;;;;6.03;1.52;;;6.70;99.90;;;;;;5051247;28;20041;-69
2022/12/27 12:21:23;;;;;;;7.75;1.60;;;6.70;99.90;;;;;;5035305;28;20087;-68
2022/12/27 12:24:11;;;;;;;7.95;1.80;;;6.70;99.90;;;;;;5035583;28;20036;-69
2022/12/27 12:26:45;;;;;;;5.15;1.42;;;6.70;99.90;;;;;;5032940;28;20044;-69
2022/12/27 12:29:33;;;;;;;9.30;1.60;;;6.70;99.90;;;;;;5048294;28;20049;-69
2022/12/27 12:32:21;;;;;;;8.63;1.40;;;6.70;99.90;;;;;;5039372;28;20041;-69
2022/12/27 12:35:11;;;;;;;7.75;1.50;;;6.60;99.90;;;;;;5050695;28;20041;-69
2022/12/27 12:37:55;;;;;;;8.35;1.58;;;6.70;99.90;;;;;;5032119;28;20076;-69
2022/12/27 12:40:41;;;;;;;8.13;1.63;;;6.80;99.90;;;;;;5045432;28;20056;-69
2022/12/27 12:43:22;;;;;;;6.53;1.50;;;6.80;99.90;;;;;;5033899;28;20094;-69
2022/12/27 12:45:58;;;;;;;8.67;1.80;;;6.80;99.90;;;;;;5047728;28;20048;-69
2022/12/27 12:48:46;;;;;;;7.90;1.65;;;6.70;99.90;;;;;;5034356;28;20139;-69
2022/12/27 12:51:29;;;;;;;4.28;1.40;;;6.70;99.90;;;;;;5051511;28;20044;-69
2022/12/27 12:54:25;;;;;;;5.30;1.65;;;6.60;99.90;;;;;;5049900;28;20073;-69
2022/12/27 12:57:26;;;;;;;9.93;1.42;;;6.60;99.90;;;;;;5047620;28;20132;-69
2022/12/27 13:00:07;;;;;;;10.90;1.55;;;6.70;99.90;;;;;;5046762;28;20041;-69
2022/12/27 13:02:50;;;;;;;8.68;1.77;;;6.80;99.90;;;;;;5034737;28;20103;-69
2022/12/27 13:05:31;;;;;;;7.60;1.77;;;6.80;99.90;;;;;;5030128;28;20464;-69
2022/12/27 13:08:09;;;;;;;7.95;1.77;;;6.80;99.90;;;;;;5043708;28;20037;-69
2022/12/27 13:11:02;;;;;;;6.43;1.77;;;6.80;99.90;;;;;;5033693;28;20033;-69
2022/12/27 13:13:39;;;;;;;8.52;2.25;;;6.80;99.90;;;;;;5046535;28;20209;-69
2022/12/27 13:16:35;;;;;;;12.48;2.42;;;6.90;99.90;;;;;;5024161;28;20040;-69
2022/12/27 13:19:13;;;;;;;7.50;1.92;;;6.80;99.90;;;;;;5053716;28;20033;-69
2022/12/27 13:22:07;;;;;;;6.00;1.88;;;6.90;99.90;;;;;;5039605;28;20048;-69
2022/12/27 13:25:07;;;;;;;10.45;2.33;;;6.90;99.90;;;;;;5054839;28;20043;-69
2022/12/27 13:27:59;;;;;;;8.88;2.05;;;7.00;99.90;;;;;;5053088;28;20055;-69
2022/12/27 13:30:41;;;;;;;7.15;1.95;;;7.00;99.90;;;;;;5051070;28;20029;-69
2022/12/27 13:33:27;;;;;;;11.60;3.40;;;6.90;99.90;;;;;;5049769;28;20052;-70
2022/12/27 13:36:14;;;;;;;4.53;1.30;;;6.90;99.90;;;;;;5027248;28;20041;-70
2022/12/27 13:39:16;;;;;;;5.65;1.90;;;7.00;99.90;;;;;;5048414;28;20048;-72
2022/12/27 13:42:08;;;;;;;8.93;2.50;;;7.00;99.90;;;;;;5041099;28;20098;-71
2022/12/27 13:44:34;;;;;;;;;;;7.00;99.90;;;;;;5034879;28;20068;-71
2022/12/27 13:47:11;;;;;;;11.32;3.10;;;7.00;99.90;;;;;;5049767;28;20400;-71
2022/12/27 13:49:46;;;;;;;8.75;2.60;;;6.90;99.90;;;;;;5044627;28;20086;-71
2022/12/27 13:52:31;;;;;;;11.73;3.17;;;7.00;99.90;;;;;;5044976;28;20042;-71
2022/12/27 13:55:13;;;;;;;10.90;3.55;;;7.00;99.90;;;;;;5041897;28;20049;-71
2022/12/27 13:58:20;;;;;;;8.95;2.92;;;6.90;99.90;;;;;;5044601;28;20045;-74
2022/12/27 14:01:09;;;;;;;10.98;2.78;;;6.90;99.90;;;;;;5027173;28;20086;-70
2022/12/27 14:03:47;;;;;;;7.13;2.58;;;6.90;99.90;;;;;;5044354;28;20138;-70
2022/12/27 14:06:31;;;;;;;9.40;3.42;;;7.00;99.90;;;;;;5041787;28;20032;-69
2022/12/27 14:09:28;;;;;;;9.82;2.88;;;7.00;99.90;;;;;;5033395;28;20404;-69
2022/12/27 14:12:06;;;;;;;10.85;3.22;;;7.00;99.90;;;;;;5037738;28;20397;-67
2022/12/27 14:14:36;;;;;;;12.13;3.42;;;7.00;99.90;;;;;;5051111;28;20143;-69
2022/12/27 14:17:50;;;;;;;15.55;3.33;;;6.90;99.90;;;;;;5050930;28;20045;-69
2022/12/27 14:20:33;;;;;;;10.57;3.95;;;6.90;99.90;;;;;;5013823;28;20067;-71
2022/12/27 14:23:24;;;;;;;8.52;3.70;;;6.90;99.90;;;;;;5011853;28;20601;-70
2022/12/27 14:26:22;;;;;;;9.45;3.67;;;6.90;99.90;;;;;;5024086;28;20042;-75
2022/12/27 14:29:24;;;;;;;11.63;3.95;;;6.90;99.90;;;;;;5042241;28;20045;-69
2022/12/27 14:32:23;;;;;;;11.75;4.40;;;6.90;99.90;;;;;;5033939;28;20041;-69
2022/12/27 14:35:29;;;;;;;10.95;4.53;;;6.90;99.90;;;;;;5050416;28;20051;-69
2022/12/27 14:38:28;;;;;;;11.75;5.13;;;6.80;99.90;;;;;;5052621;28;20053;-69
2022/12/27 14:41:24;;;;;;;13.70;5.10;;;6.80;99.90;;;;;;5050702;28;20493;-69
2022/12/27 14:44:28;;;;;;;16.60;6.28;;;6.80;99.90;;;;;;5036474;28;20043;-71
2022/12/27 14:47:11;;;;;;;13.13;5.55;;;6.80;99.90;;;;;;5035453;28;20127;-74
2022/12/27 14:49:49;;;;;;;12.07;5.93;;;6.80;99.90;;;;;;5036353;28;20460;-73
2022/12/27 14:53:08;;;;;;;13.73;6.00;;;6.80;99.90;;;;;;5051536;28;20481;-70
2022/12/27 14:55:35;;;;;;;13.00;7.03;;;6.80;99.90;;;;;;5047489;28;20158;-69
2022/12/27 14:58:18;;;;;;;14.52;7.18;;;6.70;99.90;;;;;;5030375;28;20049;-69
2022/12/27 15:01:12;;;;;;;15.63;7.65;;;6.70;99.90;;;;;;5032606;28;20041;-69
2022/12/27 15:03:44;;;;;;;15.23;8.30;;;6.60;99.90;;;;;;5041893;28;20061;-69
2022/12/27 15:06:34;;;;;;;16.70;8.82;;;6.60;99.90;;;;;;5033780;28;20076;-69
2022/12/27 15:09:18;;;;;;;15.77;8.55;;;6.60;99.90;;;;;;5050065;28;20148;-70
2022/12/27 15:12:05;;;;;;;16.15;8.98;;;6.50;99.90;;;;;;5022986;28;20125;-69
2022/12/27 15:14:42;;;;;;;14.73;8.10;;;6.50;99.90;;;;;;5040644;28;20044;-70
2022/12/27 15:17:34;;;;;;;16.60;8.75;;;6.50;99.90;;;;;;5052021;28;20493;-70